createdAt,value
2023-05-10T00:00:35.798Z,9.92
2023-05-10T00:03:15.003Z,9.93
2023-05-10T00:05:45.211Z,10.00
2023-05-10T00:08:17.874Z,9.99
2023-05-10T00:10:48.139Z,10.00
2023-05-10T00:13:18.338Z,9.92
2023-05-10T00:15:48.742Z,9.93
2023-05-10T00:18:19.013Z,9.88
2023-05-10T00:20:49.972Z,9.84
2023-05-10T00:23:22.718Z,9.78
2023-05-10T00:25:52.834Z,9.75
2023-05-10T00:28:25.625Z,9.81
2023-05-10T00:30:58.497Z,9.85
2023-05-10T00:33:29.439Z,9.79
2023-05-10T00:35:59.574Z,9.79
2023-05-10T00:38:32.373Z,9.75
2023-05-10T00:41:02.546Z,9.74
2023-05-10T00:43:35.645Z,9.72
2023-05-10T00:46:08.023Z,9.66
2023-05-10T00:48:39.052Z,9.72
2023-05-10T00:51:09.698Z,9.66
2023-05-10T00:53:45.050Z,9.62
2023-05-10T00:56:15.643Z,9.53
2023-05-10T00:58:46.117Z,9.56
2023-05-10T01:01:17.443Z,9.56
2023-05-10T01:03:49.355Z,9.56
2023-05-10T01:06:19.579Z,9.54
2023-05-10T01:08:52.330Z,9.49
2023-05-10T01:11:24.832Z,9.47
2023-05-10T01:14:00.319Z,9.45
2023-05-10T01:16:33.551Z,9.45
2023-05-10T01:19:03.864Z,9.47
2023-05-10T01:21:42.245Z,9.42
2023-05-10T01:24:50.771Z,9.41
2023-05-10T01:27:58.132Z,9.35
2023-05-10T01:31:08.480Z,9.33
2023-05-10T01:33:47.094Z,9.29
2023-05-10T01:36:28.852Z,9.31
2023-05-10T01:39:06.511Z,9.28
2023-05-10T01:41:45.441Z,9.23
2023-05-10T01:44:22.430Z,9.23
2023-05-10T01:46:57.526Z,9.16
2023-05-10T01:49:34.915Z,9.14
2023-05-10T01:52:12.602Z,9.10
2023-05-10T01:54:47.100Z,9.04
2023-05-10T01:57:19.827Z,8.95
2023-05-10T01:59:53.570Z,8.91
2023-05-10T02:02:26.314Z,8.82
2023-05-10T02:05:01.126Z,8.81
2023-05-10T02:07:32.601Z,8.76
2023-05-10T02:10:03.233Z,8.68
2023-05-10T02:12:35.655Z,8.70
2023-05-10T02:15:10.772Z,8.64
2023-05-10T02:17:42.823Z,8.55
2023-05-10T02:20:17.038Z,8.57
2023-05-10T02:22:50.955Z,8.57
2023-05-10T02:25:21.512Z,8.43
2023-05-10T02:27:52.751Z,8.45
2023-05-10T02:30:23.680Z,8.39
2023-05-10T02:32:54.792Z,8.39
2023-05-10T02:35:29.597Z,8.38
2023-05-10T02:38:02.699Z,8.35
2023-05-10T02:40:34.312Z,8.27
2023-05-10T02:43:06.660Z,8.23
2023-05-10T02:45:40.213Z,8.21
2023-05-10T02:48:10.910Z,8.12
2023-05-10T02:50:49.814Z,8.08
2023-05-10T02:53:25.037Z,8.10
2023-05-10T02:55:58.199Z,8.14
2023-05-10T02:58:28.474Z,7.98
2023-05-10T03:00:59.716Z,7.96
2023-05-10T03:03:30.047Z,8.01
2023-05-10T03:06:03.062Z,8.00
2023-05-10T03:08:33.536Z,8.00
2023-05-10T03:11:19.410Z,7.92
2023-05-10T03:14:00.803Z,7.90
2023-05-10T03:16:40.225Z,7.96
2023-05-10T03:19:16.887Z,7.99
2023-05-10T03:21:54.977Z,7.90
2023-05-10T03:24:27.195Z,7.89
2023-05-10T03:27:00.517Z,7.88
2023-05-10T03:29:32.049Z,7.90
2023-05-10T03:32:03.072Z,7.86
2023-05-10T03:34:35.283Z,7.89
2023-05-10T03:37:07.970Z,7.87
2023-05-10T03:39:38.176Z,7.87
2023-05-10T03:42:13.040Z,7.93
2023-05-10T03:44:43.490Z,7.87
2023-05-10T03:47:13.699Z,7.86
2023-05-10T03:49:44.260Z,7.84
2023-05-10T03:52:19.351Z,7.91
2023-05-10T03:54:49.518Z,7.96
2023-05-10T03:57:19.680Z,7.94
2023-05-10T03:59:49.828Z,7.97
2023-05-10T04:02:20.974Z,7.99
2023-05-10T04:04:51.498Z,8.01
2023-05-10T04:07:24.215Z,8.00
2023-05-10T04:09:54.411Z,7.99
2023-05-10T04:12:26.262Z,8.01
2023-05-10T04:14:56.362Z,8.06
2023-05-10T04:17:26.616Z,8.14
2023-05-10T04:19:57.012Z,8.19
2023-05-10T04:22:30.340Z,8.28
2023-05-10T04:25:00.518Z,8.36
2023-05-10T04:27:30.632Z,8.42
2023-05-10T04:30:01.120Z,8.51
2023-05-10T04:32:31.528Z,8.61
2023-05-10T04:35:04.110Z,8.65
2023-05-10T04:37:37.738Z,8.76
2023-05-10T04:40:09.462Z,8.91
2023-05-10T04:42:39.605Z,9.00
2023-05-10T04:45:11.588Z,9.11
2023-05-10T04:47:41.998Z,9.21
2023-05-10T04:50:12.722Z,9.38
2023-05-10T04:52:45.524Z,9.49
2023-05-10T04:55:15.676Z,9.63
2023-05-10T04:57:46.412Z,9.76
2023-05-10T05:00:18.048Z,9.98
2023-05-10T05:02:49.385Z,10.16
2023-05-10T05:05:19.620Z,10.33
2023-05-10T05:07:52.824Z,10.49
2023-05-10T05:10:22.944Z,10.65
2023-05-10T05:12:53.073Z,10.80
2023-05-10T05:15:23.762Z,11.06
2023-05-10T05:17:53.944Z,11.24
2023-05-10T05:20:24.271Z,11.43
2023-05-10T05:22:57.057Z,11.46
2023-05-10T05:25:27.254Z,11.60
2023-05-10T05:27:57.408Z,11.75
2023-05-10T05:30:29.613Z,11.93
2023-05-10T05:32:59.893Z,12.13
2023-05-10T05:35:30.077Z,12.26
2023-05-10T05:38:02.831Z,12.56
2023-05-10T05:40:32.978Z,12.71
2023-05-10T05:43:03.095Z,12.68
2023-05-10T05:45:33.698Z,12.99
2023-05-10T05:48:04.058Z,13.11
2023-05-10T05:50:34.234Z,13.17
2023-05-10T05:53:06.948Z,13.33
2023-05-10T05:55:37.105Z,13.40
2023-05-10T05:58:07.338Z,13.59
2023-05-10T06:00:38.067Z,13.75
2023-05-10T06:03:08.654Z,13.39
2023-05-10T06:05:38.843Z,13.76
2023-05-10T06:08:11.575Z,13.84
2023-05-10T06:10:41.828Z,13.79
2023-05-10T06:13:12.080Z,14.02
2023-05-10T06:15:42.509Z,14.13
2023-05-10T06:18:12.714Z,14.53
2023-05-10T06:20:42.852Z,14.30
2023-05-10T06:23:15.853Z,14.57
2023-05-10T06:25:46.047Z,14.69
2023-05-10T06:28:16.200Z,14.63
2023-05-10T06:30:46.613Z,14.82
2023-05-10T06:33:17.271Z,15.11
2023-05-10T06:35:47.434Z,15.16
2023-05-10T06:38:20.216Z,15.38
2023-05-10T06:40:50.359Z,15.36
2023-05-10T06:43:20.571Z,15.60
2023-05-10T06:45:52.184Z,15.72
2023-05-10T06:48:22.825Z,15.92
2023-05-10T06:50:53.130Z,15.73
2023-05-10T06:53:26.017Z,15.98
2023-05-10T06:55:56.261Z,15.66
2023-05-10T06:58:26.460Z,15.95
2023-05-10T07:00:58.816Z,16.13
2023-05-10T07:03:29.054Z,16.32
2023-05-10T07:06:05.338Z,16.49
2023-05-10T07:08:38.408Z,16.63
2023-05-10T07:11:11.558Z,16.71
2023-05-10T07:13:45.280Z,16.96
2023-05-10T07:16:15.642Z,17.01
2023-05-10T07:18:45.851Z,16.87
2023-05-10T07:21:16.174Z,17.31
2023-05-10T07:23:48.982Z,17.27
2023-05-10T07:26:19.126Z,16.73
2023-05-10T07:28:49.253Z,17.15
2023-05-10T07:31:19.855Z,17.69
2023-05-10T07:33:49.972Z,17.51
2023-05-10T07:36:20.290Z,17.47
2023-05-10T07:38:53.405Z,17.21
2023-05-10T07:41:23.685Z,16.53
2023-05-10T07:43:53.858Z,16.43
2023-05-10T07:46:24.076Z,16.25
2023-05-10T07:48:54.390Z,16.03
2023-05-10T07:51:24.546Z,16.12
2023-05-10T07:53:58.162Z,16.18
2023-05-10T07:56:30.832Z,17.36
2023-05-10T07:59:01.485Z,17.71
2023-05-10T08:01:35.329Z,17.59
2023-05-10T08:04:05.973Z,17.42
2023-05-10T08:06:36.189Z,17.47
2023-05-10T08:09:08.972Z,17.93
2023-05-10T08:11:39.288Z,18.27
2023-05-10T08:14:09.446Z,18.32
2023-05-10T08:16:39.681Z,18.62
2023-05-10T08:19:10.053Z,18.65
2023-05-10T08:21:41.684Z,18.52
2023-05-10T08:24:14.545Z,18.47
2023-05-10T08:26:44.738Z,18.29
2023-05-10T08:29:14.865Z,17.61
2023-05-10T08:31:45.190Z,18.08
2023-05-10T08:34:15.451Z,17.91
2023-05-10T08:36:45.767Z,17.92
2023-05-10T08:39:29.368Z,17.53
2023-05-10T08:42:05.669Z,18.09
2023-05-10T08:44:38.274Z,18.84
2023-05-10T08:47:10.864Z,18.80
2023-05-10T08:49:41.673Z,18.44
2023-05-10T08:52:12.685Z,19.15
2023-05-10T08:54:45.773Z,18.71
2023-05-10T08:57:15.949Z,18.18
2023-05-10T08:59:46.431Z,18.90
2023-05-10T09:02:18.779Z,18.70
2023-05-10T09:04:50.404Z,18.89
2023-05-10T09:07:21.016Z,18.68
2023-05-10T09:09:54.344Z,18.27
2023-05-10T09:12:24.754Z,18.27
2023-05-10T09:14:56.481Z,18.05
2023-05-10T09:17:28.071Z,18.42
2023-05-10T09:20:02.328Z,19.20
2023-05-10T09:22:32.630Z,18.53
2023-05-10T09:25:15.080Z,19.01
2023-05-10T09:27:48.983Z,18.99
2023-05-10T09:30:28.655Z,19.45
2023-05-10T09:33:00.744Z,19.28
2023-05-10T09:35:32.770Z,18.89
2023-05-10T09:38:05.226Z,18.95
2023-05-10T09:40:38.095Z,18.82
2023-05-10T09:43:11.990Z,19.13
2023-05-10T09:45:42.345Z,19.35
2023-05-10T09:48:12.645Z,19.36
2023-05-10T09:50:43.055Z,18.79
2023-05-10T09:53:13.250Z,19.67
2023-05-10T09:55:48.142Z,19.31
2023-05-10T09:58:18.986Z,19.87
2023-05-10T10:00:56.104Z,19.89
2023-05-10T10:03:27.776Z,20.34
2023-05-10T10:05:59.236Z,19.85
2023-05-10T10:08:29.535Z,19.11
2023-05-10T10:11:02.616Z,18.97
2023-05-10T10:13:33.505Z,19.66
2023-05-10T10:16:03.685Z,20.45
2023-05-10T10:18:35.254Z,20.22
2023-05-10T10:21:06.418Z,20.57
2023-05-10T10:23:36.812Z,19.50
2023-05-10T10:26:10.751Z,19.99
2023-05-10T10:28:48.686Z,19.85
2023-05-10T10:31:28.481Z,19.63
2023-05-10T10:34:05.969Z,19.08
2023-05-10T10:36:38.197Z,19.48
2023-05-10T10:39:14.159Z,19.56
2023-05-10T10:41:55.193Z,18.82
2023-05-10T10:44:39.339Z,19.91
2023-05-10T10:47:30.288Z,19.32
2023-05-10T10:50:14.031Z,20.44
2023-05-10T10:52:44.362Z,19.93
2023-05-10T10:55:18.332Z,20.08
2023-05-10T10:58:01.798Z,20.59
2023-05-10T11:00:34.796Z,20.40
2023-05-10T11:03:10.370Z,20.33
2023-05-10T11:05:45.756Z,19.54
2023-05-10T11:08:23.068Z,20.55
2023-05-10T11:11:08.322Z,20.48
2023-05-10T11:13:43.280Z,20.63
2023-05-10T11:16:21.737Z,20.52
2023-05-10T11:19:02.893Z,21.11
2023-05-10T11:21:33.780Z,21.32
2023-05-10T11:24:08.220Z,21.22
2023-05-10T11:26:39.549Z,21.38
2023-05-10T11:29:12.401Z,21.92
2023-05-10T11:31:48.102Z,22.33
2023-05-10T11:34:28.363Z,21.80
2023-05-10T11:36:59.824Z,22.34
2023-05-10T11:39:31.753Z,22.36
2023-05-10T11:42:02.862Z,21.84
2023-05-10T11:44:36.985Z,21.72
2023-05-10T11:47:07.237Z,21.48
2023-05-10T11:49:37.429Z,20.83
2023-05-10T11:52:12.403Z,20.45
2023-05-10T11:54:49.904Z,20.93
2023-05-10T11:57:20.084Z,20.69
2023-05-10T11:59:57.709Z,20.49
2023-05-10T12:02:28.263Z,20.77
2023-05-10T12:04:59.715Z,21.32
2023-05-10T12:07:30.690Z,21.64
2023-05-10T12:10:08.990Z,21.99
2023-05-10T12:12:43.125Z,21.22
2023-05-10T12:15:22.823Z,20.73
2023-05-10T12:17:53.964Z,20.94
2023-05-10T12:20:26.246Z,20.72
2023-05-10T12:23:00.344Z,20.21
2023-05-10T12:25:35.229Z,20.53
2023-05-10T12:28:08.642Z,21.65
2023-05-10T12:30:42.852Z,21.38
2023-05-10T12:33:16.189Z,21.23
2023-05-10T12:35:50.197Z,20.77
2023-05-10T12:38:31.923Z,20.68
2023-05-10T12:41:03.395Z,21.17
2023-05-10T12:43:34.278Z,21.51
2023-05-10T12:46:12.390Z,22.18
2023-05-10T12:48:44.028Z,21.64
2023-05-10T12:51:19.354Z,21.00
2023-05-10T12:53:49.844Z,20.87
2023-05-10T12:56:20.051Z,20.66
2023-05-10T12:58:50.259Z,20.90
2023-05-10T13:01:23.222Z,21.06
2023-05-10T13:03:53.404Z,21.42
2023-05-10T13:06:23.674Z,21.67
2023-05-10T13:08:53.990Z,22.21
2023-05-10T13:11:24.478Z,22.16
2023-05-10T13:13:55.101Z,22.48
2023-05-10T13:16:28.084Z,21.65
2023-05-10T13:18:58.355Z,22.10
2023-05-10T13:21:29.104Z,22.14
2023-05-10T13:23:59.452Z,22.14
2023-05-10T13:26:30.037Z,21.52
2023-05-10T13:29:00.314Z,21.68
2023-05-10T13:31:33.092Z,21.70
2023-05-10T13:34:03.561Z,22.02
2023-05-10T13:36:34.163Z,22.01
2023-05-10T13:39:06.522Z,21.92
2023-05-10T13:41:36.687Z,22.18
2023-05-10T13:44:06.867Z,22.05
2023-05-10T13:46:39.880Z,21.51
2023-05-10T13:49:10.426Z,21.11
2023-05-10T13:51:40.584Z,20.62
2023-05-10T13:54:13.287Z,20.98
2023-05-10T13:56:45.178Z,21.52
2023-05-10T13:59:15.308Z,22.06
2023-05-10T14:01:48.571Z,21.95
2023-05-10T14:04:19.753Z,21.56
2023-05-10T14:06:49.938Z,21.61
2023-05-10T14:09:20.685Z,21.75
2023-05-10T14:11:50.980Z,21.62
2023-05-10T14:14:21.165Z,22.14
2023-05-10T14:16:53.897Z,21.64
2023-05-10T14:19:24.007Z,21.62
2023-05-10T14:21:54.133Z,21.63
2023-05-10T14:24:24.308Z,21.72
2023-05-10T14:26:55.241Z,21.73
2023-05-10T14:29:25.484Z,21.89
2023-05-10T14:31:58.517Z,21.51
2023-05-10T14:34:28.744Z,21.65
2023-05-10T14:36:59.542Z,21.81
2023-05-10T14:39:30.803Z,21.76
2023-05-10T14:42:00.956Z,21.87
2023-05-10T14:44:31.753Z,21.57
2023-05-10T14:47:04.523Z,21.40
2023-05-10T14:49:34.794Z,21.43
2023-05-10T14:52:05.017Z,21.64
2023-05-10T14:54:35.178Z,21.08
2023-05-10T14:57:06.658Z,21.24
2023-05-10T14:59:36.875Z,21.39
2023-05-10T15:02:11.518Z,21.73
2023-05-10T15:04:42.248Z,21.26
2023-05-10T15:07:15.546Z,21.36
2023-05-10T15:09:45.829Z,21.55
2023-05-10T15:12:16.040Z,21.52
2023-05-10T15:14:46.131Z,21.44
2023-05-10T15:17:18.895Z,21.51
2023-05-10T15:19:51.889Z,21.55
2023-05-10T15:22:27.430Z,21.52
2023-05-10T15:25:00.203Z,21.53
2023-05-10T15:27:30.612Z,21.64
2023-05-10T15:30:00.930Z,21.32
2023-05-10T15:32:33.750Z,21.31
2023-05-10T15:35:03.954Z,20.72
2023-05-10T15:37:34.103Z,20.55
2023-05-10T15:40:06.807Z,20.21
2023-05-10T15:42:36.960Z,20.32
2023-05-10T15:45:08.443Z,20.47
2023-05-10T15:47:43.032Z,20.29
2023-05-10T15:50:14.177Z,20.30
2023-05-10T15:52:44.526Z,20.58
2023-05-10T15:55:15.828Z,20.77
2023-05-10T15:57:51.038Z,20.57
2023-05-10T16:00:21.661Z,20.54
2023-05-10T16:02:56.022Z,20.35
2023-05-10T16:05:27.718Z,20.21
2023-05-10T16:07:57.875Z,20.02
2023-05-10T16:10:28.138Z,19.81
2023-05-10T16:12:58.447Z,19.78
2023-05-10T16:15:30.900Z,19.79
2023-05-10T16:18:05.100Z,19.87
2023-05-10T16:20:36.340Z,19.81
2023-05-10T16:23:08.011Z,19.77
2023-05-10T16:25:38.344Z,19.68
2023-05-10T16:28:08.586Z,19.58
2023-05-10T16:30:39.048Z,19.66
2023-05-10T16:33:11.977Z,19.19
2023-05-10T16:35:44.557Z,19.22
2023-05-10T16:38:15.249Z,19.12
2023-05-10T16:40:50.966Z,19.09
2023-05-10T16:43:21.722Z,18.94
2023-05-10T16:45:53.232Z,18.78
2023-05-10T16:48:26.125Z,18.65
2023-05-10T16:50:59.143Z,18.72
2023-05-10T16:53:29.507Z,18.57
2023-05-10T16:55:59.736Z,18.66
2023-05-10T16:58:29.909Z,18.53
2023-05-10T17:01:00.566Z,18.48
2023-05-10T17:03:33.828Z,18.44
2023-05-10T17:06:04.000Z,18.33
2023-05-10T17:08:34.248Z,18.24
2023-05-10T17:11:05.301Z,18.15
2023-05-10T17:13:35.477Z,18.12
2023-05-10T17:16:06.437Z,17.99
2023-05-10T17:18:39.312Z,17.88
2023-05-10T17:21:09.696Z,17.89
2023-05-10T17:23:39.854Z,17.72
2023-05-10T17:26:10.484Z,17.67
2023-05-10T17:28:40.874Z,17.57
2023-05-10T17:31:11.352Z,17.49
2023-05-10T17:33:44.133Z,17.42
2023-05-10T17:36:14.304Z,17.31
2023-05-10T17:38:44.540Z,17.29
2023-05-10T17:41:14.610Z,17.10
2023-05-10T17:43:44.824Z,17.03
2023-05-10T17:46:15.355Z,16.99
2023-05-10T17:48:48.145Z,16.92
2023-05-10T17:51:18.296Z,16.90
2023-05-10T17:53:48.435Z,16.82
2023-05-10T17:56:18.532Z,16.85
2023-05-10T17:58:48.796Z,16.85
2023-05-10T18:01:19.308Z,16.82
2023-05-10T18:03:53.116Z,16.61
2023-05-10T18:06:23.746Z,16.58
2023-05-10T18:08:53.911Z,16.48
2023-05-10T18:11:24.035Z,16.45
2023-05-10T18:13:54.384Z,16.52
2023-05-10T18:16:24.567Z,16.45
2023-05-10T18:18:57.361Z,16.35
2023-05-10T18:21:27.566Z,16.23
2023-05-10T18:23:57.824Z,16.27
2023-05-10T18:26:28.344Z,16.24
2023-05-10T18:29:00.693Z,16.19
2023-05-10T18:31:32.872Z,16.21
2023-05-10T18:34:05.918Z,16.20
2023-05-10T18:36:36.246Z,16.08
2023-05-10T18:39:06.465Z,15.97
2023-05-10T18:41:37.768Z,15.98
2023-05-10T18:44:09.001Z,15.88
2023-05-10T18:46:39.342Z,15.86
2023-05-10T18:49:12.314Z,15.76
2023-05-10T18:51:42.439Z,15.56
2023-05-10T18:54:13.129Z,15.51
2023-05-10T18:56:45.438Z,15.53
2023-05-10T18:59:15.982Z,15.48
2023-05-10T19:01:47.478Z,15.51
2023-05-10T19:04:24.408Z,15.47
2023-05-10T19:06:56.094Z,15.45
2023-05-10T19:09:26.270Z,15.49
2023-05-10T19:11:56.918Z,15.40
2023-05-10T19:14:27.947Z,15.49
2023-05-10T19:17:01.356Z,15.47
2023-05-10T19:19:35.335Z,15.51
2023-05-10T19:22:05.539Z,15.55
2023-05-10T19:24:37.090Z,15.59
2023-05-10T19:27:07.481Z,15.56
2023-05-10T19:29:38.014Z,15.45
2023-05-10T19:32:09.401Z,15.40
2023-05-10T19:34:42.278Z,15.45
2023-05-10T19:37:12.443Z,15.40
2023-05-10T19:39:42.655Z,15.40
2023-05-10T19:42:12.807Z,15.47
2023-05-10T19:44:43.119Z,15.33
2023-05-10T19:47:13.369Z,15.29
2023-05-10T19:49:46.248Z,15.19
2023-05-10T19:52:16.443Z,15.07
2023-05-10T19:54:47.060Z,14.94
2023-05-10T19:57:17.362Z,14.87
2023-05-10T19:59:47.600Z,14.82
2023-05-10T20:02:17.741Z,14.94
2023-05-10T20:04:50.678Z,14.86
2023-05-10T20:07:20.878Z,14.81
2023-05-10T20:09:53.981Z,14.89
2023-05-10T20:12:24.088Z,14.87
2023-05-10T20:14:54.285Z,14.88
2023-05-10T20:17:24.547Z,14.77
2023-05-10T20:19:57.328Z,14.78
2023-05-10T20:22:28.812Z,14.70
2023-05-10T20:24:59.216Z,14.72
2023-05-10T20:27:29.432Z,14.74
2023-05-10T20:29:59.571Z,14.72
2023-05-10T20:32:29.931Z,14.65
2023-05-10T20:35:02.746Z,14.53
2023-05-10T20:37:35.677Z,14.40
2023-05-10T20:40:05.846Z,14.34
2023-05-10T20:42:36.174Z,14.28
2023-05-10T20:45:06.695Z,14.21
2023-05-10T20:47:36.941Z,14.09
2023-05-10T20:50:11.907Z,14.02
2023-05-10T20:52:42.405Z,13.98
2023-05-10T20:55:13.300Z,14.15
2023-05-10T20:57:43.440Z,14.10
2023-05-10T21:00:14.993Z,14.03
2023-05-10T21:02:46.325Z,14.01
2023-05-10T21:05:20.725Z,13.99
2023-05-10T21:07:54.299Z,13.90
2023-05-10T21:10:25.830Z,13.91
2023-05-10T21:12:55.987Z,13.95
2023-05-10T21:15:28.146Z,13.85
2023-05-10T21:17:58.969Z,13.87
2023-05-10T21:20:33.236Z,13.73
2023-05-10T21:23:03.329Z,13.69
2023-05-10T21:25:33.464Z,13.69
2023-05-10T21:28:03.522Z,13.64
2023-05-10T21:30:34.081Z,13.55
2023-05-10T21:33:04.361Z,13.47
2023-05-10T21:35:39.540Z,13.44
2023-05-10T21:38:09.867Z,13.32
2023-05-10T21:40:40.012Z,13.24
2023-05-10T21:43:11.497Z,13.10
2023-05-10T21:45:43.324Z,13.11
2023-05-10T21:48:15.731Z,12.94
2023-05-10T21:50:49.159Z,12.78
2023-05-10T21:53:20.137Z,12.79
2023-05-10T21:55:52.732Z,12.69
2023-05-10T21:58:22.862Z,12.54
2023-05-10T22:00:53.659Z,12.56
2023-05-10T22:03:24.206Z,12.58
2023-05-10T22:05:57.013Z,12.52
2023-05-10T22:08:27.214Z,12.49
2023-05-10T22:10:57.373Z,12.49
2023-05-10T22:13:28.904Z,12.43
2023-05-10T22:15:59.054Z,12.34
2023-05-10T22:18:29.483Z,12.35
2023-05-10T22:21:02.316Z,12.36
2023-05-10T22:23:32.427Z,12.41
2023-05-10T22:26:04.280Z,12.30
2023-05-10T22:28:34.381Z,12.31
2023-05-10T22:31:06.260Z,12.14
2023-05-10T22:33:36.487Z,12.18
2023-05-10T22:36:09.704Z,12.09
2023-05-10T22:38:39.936Z,12.04
2023-05-10T22:41:10.109Z,12.03
2023-05-10T22:43:40.224Z,12.00
2023-05-10T22:46:10.331Z,11.88
2023-05-10T22:48:40.573Z,11.86
2023-05-10T22:51:13.380Z,11.78
2023-05-10T22:53:44.760Z,11.66
2023-05-10T22:56:14.910Z,11.64
2023-05-10T22:58:45.098Z,11.56
2023-05-10T23:01:15.307Z,11.57
2023-05-10T23:03:45.479Z,11.57
2023-05-10T23:06:18.700Z,11.52
2023-05-10T23:08:49.542Z,11.50
2023-05-10T23:11:19.652Z,11.47
2023-05-10T23:13:50.799Z,11.49
2023-05-10T23:16:21.583Z,11.44
2023-05-10T23:18:51.788Z,11.43
2023-05-10T23:21:25.408Z,11.36
2023-05-10T23:23:55.605Z,11.30
2023-05-10T23:26:25.799Z,11.31
2023-05-10T23:28:55.977Z,11.23
2023-05-10T23:31:29.075Z,11.14
2023-05-10T23:33:59.212Z,11.13
2023-05-10T23:36:32.116Z,11.07
2023-05-10T23:39:02.217Z,11.08
2023-05-10T23:41:32.431Z,10.99
2023-05-10T23:44:03.285Z,11.04
2023-05-10T23:46:33.449Z,10.99
2023-05-10T23:49:03.691Z,10.94
2023-05-10T23:51:36.428Z,10.97
2023-05-10T23:54:06.717Z,10.95
2023-05-10T23:56:36.886Z,10.97
2023-05-10T23:59:07.690Z,10.92
